Time;durP1;ratioP1;P1;durP2;ratioP2;P2;SDS_P1;SDS_P2;PMS_P1;PMS_P2;Temp;Humidity;BMP_temperature;BMP_pressure;BME280_temperature;BME280_humidity;BME280_pressure;Samples;Min_cycle;Max_cycle;Signal;HPM_P1;HPM_P2
2024/02/21 00:01:35;;;;;;;8.03;6.53;;;7.10;99.90;;;;;;5041358;28;20277;-68
2024/02/21 00:04:01;;;;;;;14.40;5.77;;;7.10;99.90;;;;;;5040879;28;20201;-68
2024/02/21 00:06:26;;;;;;;7.00;5.50;;;7.20;99.90;;;;;;5058610;28;20619;-68
2024/02/21 00:08:52;;;;;;;6.90;4.40;;;7.20;99.90;;;;;;5066309;28;20197;-68
2024/02/21 00:11:17;;;;;;;9.67;5.57;;;7.10;99.90;;;;;;5065511;28;20181;-68
2024/02/21 00:13:43;;;;;;;8.87;5.63;;;7.10;99.90;;;;;;5052955;28;20188;-68
2024/02/21 00:16:08;;;;;;;9.80;5.70;;;7.10;99.90;;;;;;5046725;28;20623;-68
2024/02/21 00:18:34;;;;;;;10.10;5.67;;;7.00;99.90;;;;;;5031996;28;20197;-68
2024/02/21 00:21:01;;;;;;;9.10;4.90;;;7.00;99.90;;;;;;5056150;28;20180;-68
2024/02/21 00:23:27;;;;;;;7.10;4.87;;;7.00;99.90;;;;;;5055276;28;20174;-68
2024/02/21 00:25:53;;;;;;;14.17;5.60;;;6.90;99.90;;;;;;5055600;28;20466;-68
2024/02/21 00:28:18;;;;;;;10.47;6.10;;;6.90;99.90;;;;;;5061355;28;20443;-68
2024/02/21 00:30:44;;;;;;;9.97;5.80;;;6.90;99.90;;;;;;5060697;28;20224;-68
2024/02/21 00:33:09;;;;;;;7.83;6.13;;;6.90;99.90;;;;;;5055964;28;20755;-68
2024/02/21 00:35:35;;;;;;;5.57;5.07;;;6.90;99.90;;;;;;5048762;28;20178;-68
2024/02/21 00:38:00;;;;;;;16.37;4.90;;;6.90;99.90;;;;;;5072121;28;20193;-68
2024/02/21 00:40:26;;;;;;;17.77;5.63;;;6.80;99.90;;;;;;5061427;28;20231;-68
2024/02/21 00:42:51;;;;;;;10.33;5.10;;;6.80;99.90;;;;;;5061456;28;20193;-68
2024/02/21 00:45:17;;;;;;;7.80;5.10;;;6.80;99.90;;;;;;5047078;28;20205;-68
2024/02/21 00:47:42;;;;;;;10.83;5.40;;;6.80;99.90;;;;;;5051317;28;20197;-68
2024/02/21 00:50:09;;;;;;;5.80;4.63;;;6.80;99.90;;;;;;5060252;28;20178;-68
2024/02/21 00:52:34;;;;;;;9.27;4.47;;;6.80;99.90;;;;;;5054997;28;20658;-68
2024/02/21 00:55:00;;;;;;;19.57;4.73;;;6.80;99.90;;;;;;5062485;28;20435;-68
2024/02/21 00:57:26;;;;;;;16.90;5.43;;;6.80;99.90;;;;;;5057189;28;20174;-68
2024/02/21 00:59:51;;;;;;;10.47;5.43;;;6.80;99.90;;;;;;5049986;28;20524;-68
2024/02/21 01:02:17;;;;;;;7.13;5.00;;;6.70;99.90;;;;;;5047766;28;20432;-68
2024/02/21 01:04:43;;;;;;;10.00;5.10;;;6.70;99.90;;;;;;5057958;28;20197;-68
2024/02/21 01:07:08;;;;;;;13.20;5.20;;;6.70;99.90;;;;;;5049154;28;20667;-68
2024/02/21 01:09:34;;;;;;;7.13;4.50;;;6.70;99.90;;;;;;5034662;28;20178;-68
2024/02/21 01:11:59;;;;;;;7.03;5.33;;;6.70;99.90;;;;;;5060505;28;20634;-68
2024/02/21 01:14:25;;;;;;;6.97;4.83;;;6.60;99.90;;;;;;5058144;28;20181;-68
2024/02/21 01:16:50;;;;;;;9.90;4.43;;;6.60;99.90;;;;;;5058927;28;20204;-68
2024/02/21 01:19:16;;;;;;;9.77;4.10;;;6.50;99.90;;;;;;5074781;28;20193;-68
2024/02/21 01:21:41;;;;;;;8.20;4.13;;;6.50;99.90;;;;;;5067001;28;20790;-68
2024/02/21 01:24:07;;;;;;;11.63;5.30;;;6.50;99.90;;;;;;5053667;28;20244;-68
2024/02/21 01:26:32;;;;;;;10.67;4.53;;;6.50;99.90;;;;;;5043873;28;20257;-68
2024/02/21 01:28:58;;;;;;;6.27;3.87;;;6.50;99.90;;;;;;5035913;28;20234;-68
2024/02/21 01:31:23;;;;;;;10.57;4.70;;;6.50;99.90;;;;;;5062906;28;20181;-69
2024/02/21 01:33:49;;;;;;;10.17;4.20;;;6.50;99.90;;;;;;5058853;28;20296;-68
2024/02/21 01:36:14;;;;;;;7.10;4.70;;;6.40;99.90;;;;;;5056083;28;20545;-68
2024/02/21 01:38:40;;;;;;;9.60;4.40;;;6.40;99.90;;;;;;5059474;28;20655;-68
2024/02/21 01:41:06;;;;;;;6.97;4.57;;;6.40;99.90;;;;;;5055008;28;20174;-68
2024/02/21 01:43:31;;;;;;;4.90;3.80;;;6.40;99.90;;;;;;5066068;28;20185;-68
2024/02/21 01:45:57;;;;;;;10.27;5.03;;;6.40;99.90;;;;;;5057360;28;20466;-68
2024/02/21 01:48:23;;;;;;;5.67;3.80;;;6.50;99.90;;;;;;5056245;28;20198;-68
2024/02/21 01:50:49;;;;;;;7.73;5.30;;;6.40;99.90;;;;;;5065729;28;20762;-68
2024/02/21 01:53:22;;;;;;;11.93;5.17;;;6.40;99.90;;;;;;5070117;28;20928;-68
2024/02/21 01:55:48;;;;;;;15.30;4.97;;;6.40;99.90;;;;;;5052491;28;20477;-68
2024/02/21 01:58:15;;;;;;;11.90;4.50;;;6.40;99.90;;;;;;5064958;28;20474;-68
2024/02/21 02:00:42;;;;;;;12.13;4.73;;;6.40;99.90;;;;;;5038914;28;20969;-68
2024/02/21 02:03:10;;;;;;;10.80;4.50;;;6.40;99.90;;;;;;5052094;28;20431;-68
2024/02/21 02:05:35;;;;;;;8.83;4.13;;;6.30;99.90;;;;;;5051708;28;20463;-68
2024/02/21 02:08:01;;;;;;;5.50;4.07;;;6.40;99.90;;;;;;5071243;28;20454;-68
2024/02/21 02:10:27;;;;;;;7.77;3.70;;;6.30;99.90;;;;;;5069552;28;20177;-68
2024/02/21 02:12:52;;;;;;;7.30;4.17;;;6.30;99.90;;;;;;5061146;28;20279;-68
2024/02/21 02:15:18;;;;;;;6.00;4.20;;;6.30;99.90;;;;;;5056678;28;20652;-68
2024/02/21 02:17:43;;;;;;;11.73;4.90;;;6.30;99.90;;;;;;5046652;28;20236;-68
2024/02/21 02:20:09;;;;;;;9.70;4.47;;;6.30;99.90;;;;;;5056747;28;20644;-68
2024/02/21 02:22:38;;;;;;;6.47;3.60;;;6.30;99.90;;;;;;5040232;28;20195;-68
2024/02/21 02:25:04;;;;;;;5.47;4.20;;;6.30;99.90;;;;;;5042788;28;20476;-68
2024/02/21 02:27:30;;;;;;;7.70;4.60;;;6.30;99.90;;;;;;5062870;28;20447;-68
2024/02/21 02:29:55;;;;;;;8.73;4.30;;;6.30;99.90;;;;;;5056314;28;20443;-68
2024/02/21 02:32:21;;;;;;;7.57;3.90;;;6.40;99.90;;;;;;5053064;28;20181;-68
2024/02/21 02:34:46;;;;;;;8.67;4.90;;;6.30;99.90;;;;;;5057030;28;20363;-68
2024/02/21 02:37:12;;;;;;;10.53;4.20;;;6.40;99.90;;;;;;5049873;28;20170;-68
2024/02/21 02:39:37;;;;;;;7.67;4.67;;;6.40;99.90;;;;;;5045847;28;20209;-68
2024/02/21 02:42:03;;;;;;;7.67;3.80;;;6.40;99.90;;;;;;5048234;28;20176;-68
2024/02/21 02:44:28;;;;;;;6.93;4.17;;;6.40;99.90;;;;;;5058994;28;20208;-68
2024/02/21 02:46:54;;;;;;;10.70;4.33;;;6.40;99.90;;;;;;5041338;28;20178;-68
2024/02/21 02:49:19;;;;;;;11.20;4.20;;;6.40;99.90;;;;;;5056133;28;20682;-68
2024/02/21 02:51:45;;;;;;;6.47;3.73;;;6.40;99.90;;;;;;5042479;28;20260;-68
2024/02/21 02:54:11;;;;;;;6.30;4.00;;;6.40;99.90;;;;;;5035504;28;20178;-68
2024/02/21 02:56:37;;;;;;;6.30;4.30;;;6.50;99.90;;;;;;5047480;28;20203;-68
2024/02/21 02:59:03;;;;;;;9.57;4.93;;;6.50;99.90;;;;;;5061478;28;20476;-69
2024/02/21 03:01:28;;;;;;;8.43;4.00;;;6.40;99.90;;;;;;5049674;28;20737;-68
2024/02/21 03:03:54;;;;;;;9.60;4.97;;;6.40;99.90;;;;;;5064827;28;20444;-68
2024/02/21 03:06:20;;;;;;;5.77;4.50;;;6.30;99.90;;;;;;5051017;28;20251;-68
2024/02/21 03:08:45;;;;;;;11.00;4.30;;;6.30;99.90;;;;;;5049710;28;20201;-68
2024/02/21 03:11:11;;;;;;;8.23;4.50;;;6.20;99.90;;;;;;5053954;28;20185;-68
2024/02/21 03:13:37;;;;;;;7.83;4.50;;;6.10;99.90;;;;;;5057767;28;20182;-68
2024/02/21 03:16:02;;;;;;;9.23;6.10;;;6.00;99.90;;;;;;5059122;28;20178;-68
2024/02/21 03:18:28;;;;;;;9.30;4.67;;;6.00;99.90;;;;;;5052318;28;20202;-68
2024/02/21 03:20:54;;;;;;;9.03;4.27;;;5.90;99.90;;;;;;5053116;28;20699;-68
2024/02/21 03:23:19;;;;;;;7.40;4.87;;;5.90;99.90;;;;;;5048104;28;20186;-68
2024/02/21 03:25:45;;;;;;;10.50;5.90;;;5.90;99.90;;;;;;5040354;28;20202;-68
2024/02/21 03:28:10;;;;;;;8.83;5.50;;;5.90;99.90;;;;;;5037363;28;20244;-68
2024/02/21 03:30:36;;;;;;;7.50;5.10;;;6.00;99.90;;;;;;5059459;28;20647;-68
2024/02/21 03:33:02;;;;;;;7.50;4.80;;;6.10;99.90;;;;;;5051625;28;20594;-68
2024/02/21 03:35:28;;;;;;;12.60;4.90;;;6.20;99.90;;;;;;5040296;28;20182;-68
2024/02/21 03:37:53;;;;;;;9.70;4.70;;;6.10;99.90;;;;;;5046400;28;20452;-68
2024/02/21 03:40:19;;;;;;;8.50;4.33;;;6.20;99.90;;;;;;5032593;28;20185;-68
2024/02/21 03:42:44;;;;;;;13.67;4.40;;;6.20;99.90;;;;;;5055031;28;20182;-68
2024/02/21 03:45:10;;;;;;;12.50;5.10;;;6.10;99.90;;;;;;5046967;28;20194;-68
2024/02/21 03:47:35;;;;;;;9.80;4.83;;;6.10;99.90;;;;;;5046794;28;20710;-68
2024/02/21 03:50:01;;;;;;;8.67;4.40;;;6.00;99.90;;;;;;5060986;28;20177;-68
2024/02/21 03:52:26;;;;;;;10.40;4.70;;;6.00;99.90;;;;;;5072147;28;20177;-68
2024/02/21 03:54:54;;;;;;;10.17;5.40;;;6.00;99.90;;;;;;5057377;28;20182;-68
2024/02/21 03:57:20;;;;;;;11.97;4.33;;;5.90;99.90;;;;;;5046577;28;20257;-68
2024/02/21 03:59:46;;;;;;;7.93;4.23;;;5.90;99.90;;;;;;5042280;28;20523;-68
2024/02/21 04:02:11;;;;;;;6.13;3.80;;;5.90;99.90;;;;;;5037059;28;20193;-68
2024/02/21 04:04:37;;;;;;;11.00;4.50;;;5.90;99.90;;;;;;5060100;28;20197;-68
2024/02/21 04:07:06;;;;;;;10.53;4.90;;;5.90;99.90;;;;;;5046657;28;20235;-68
2024/02/21 04:09:33;;;;;;;13.50;3.90;;;5.90;99.90;;;;;;5046167;28;20674;-68
2024/02/21 04:11:59;;;;;;;10.50;4.70;;;5.80;99.90;;;;;;5034620;28;20429;-68
2024/02/21 04:14:24;;;;;;;7.50;4.73;;;5.80;99.90;;;;;;5059505;28;20431;-68
2024/02/21 04:16:50;;;;;;;9.37;4.27;;;5.80;99.90;;;;;;5052881;28;20949;-68
2024/02/21 04:19:15;;;;;;;10.00;3.90;;;5.70;99.90;;;;;;5034071;28;20198;-68
2024/02/21 04:21:41;;;;;;;7.50;4.30;;;5.70;99.90;;;;;;5037275;28;20187;-68
2024/02/21 04:24:06;;;;;;;7.60;4.90;;;5.70;99.90;;;;;;5039497;28;20644;-68
2024/02/21 04:26:32;;;;;;;3.67;3.20;;;5.70;99.90;;;;;;5038942;28;20198;-68
2024/02/21 04:28:58;;;;;;;11.13;3.63;;;5.60;99.90;;;;;;5054800;28;22024;-68
2024/02/21 04:31:23;;;;;;;8.20;4.30;;;5.60;99.90;;;;;;5046560;28;20217;-68
2024/02/21 04:33:48;;;;;;;7.00;3.30;;;5.60;99.90;;;;;;5046820;28;20552;-68
2024/02/21 04:36:14;;;;;;;6.00;3.23;;;5.60;99.90;;;;;;5049472;28;20192;-67
2024/02/21 04:38:40;;;;;;;7.60;4.23;;;5.60;99.90;;;;;;5056676;28;20189;-68
2024/02/21 04:41:06;;;;;;;8.40;4.60;;;5.60;99.90;;;;;;5048992;28;20658;-68
2024/02/21 04:43:32;;;;;;;13.90;3.60;;;5.60;99.90;;;;;;5051358;28;20524;-68
2024/02/21 04:45:57;;;;;;;4.20;3.30;;;5.60;99.90;;;;;;5040628;28;20271;-68
2024/02/21 04:48:23;;;;;;;8.70;3.90;;;5.60;99.90;;;;;;5040446;28;20204;-68
2024/02/21 04:50:48;;;;;;;6.03;3.67;;;5.60;99.90;;;;;;5042571;28;20179;-67
2024/02/21 04:53:14;;;;;;;5.50;3.60;;;5.60;99.90;;;;;;5032156;28;20179;-68
2024/02/21 04:55:40;;;;;;;6.23;3.20;;;5.60;99.90;;;;;;5049131;28;20186;-68
2024/02/21 04:58:05;;;;;;;5.20;3.40;;;5.60;99.90;;;;;;5053689;28;20223;-68
2024/02/21 05:00:31;;;;;;;7.53;3.57;;;5.60;99.90;;;;;;5051209;28;20791;-68
2024/02/21 05:02:56;;;;;;;4.80;3.27;;;5.50;99.90;;;;;;5057314;28;20188;-68
2024/02/21 05:05:22;;;;;;;7.33;3.63;;;5.50;99.90;;;;;;5053173;28;20216;-68
2024/02/21 05:07:47;;;;;;;6.20;3.10;;;5.50;99.90;;;;;;5045996;28;20730;-68
2024/02/21 05:10:13;;;;;;;7.10;3.70;;;5.50;99.90;;;;;;5047384;28;20245;-68
2024/02/21 05:12:38;;;;;;;7.60;4.40;;;5.40;99.90;;;;;;5044909;28;20184;-68
2024/02/21 05:15:04;;;;;;;6.20;3.90;;;5.50;99.90;;;;;;5044159;28;20655;-68
2024/02/21 05:17:30;;;;;;;6.13;4.47;;;5.50;99.90;;;;;;5044786;28;20238;-68
2024/02/21 05:19:55;;;;;;;7.00;3.70;;;5.50;99.90;;;;;;5056350;28;20830;-68
2024/02/21 05:22:21;;;;;;;5.40;3.67;;;5.50;99.90;;;;;;5057454;28;20196;-68
2024/02/21 05:24:46;;;;;;;3.73;3.43;;;5.40;99.90;;;;;;5051806;28;20201;-68
2024/02/21 05:27:12;;;;;;;9.10;3.63;;;5.40;99.90;;;;;;5048966;28;20560;-68
2024/02/21 05:29:37;;;;;;;6.43;3.50;;;5.40;99.90;;;;;;5034781;28;20192;-68
2024/02/21 05:32:03;;;;;;;7.83;3.30;;;5.40;99.90;;;;;;5038530;28;20178;-68
2024/02/21 05:34:29;;;;;;;10.07;4.17;;;5.40;99.90;;;;;;5061777;28;20340;-68
2024/02/21 05:36:54;;;;;;;8.30;3.43;;;5.40;99.90;;;;;;5055536;28;20223;-68
2024/02/21 05:39:22;;;;;;;6.17;3.00;;;5.50;99.90;;;;;;5061332;28;20204;-68
2024/02/21 05:41:48;;;;;;;6.27;3.60;;;5.50;99.90;;;;;;5054494;28;20178;-68
2024/02/21 05:44:13;;;;;;;5.30;3.17;;;5.50;99.90;;;;;;5040392;28;20813;-68
2024/02/21 05:46:39;;;;;;;13.07;4.20;;;5.50;99.90;;;;;;5063409;28;20268;-68
2024/02/21 05:49:04;;;;;;;8.90;3.50;;;5.50;99.90;;;;;;5038354;28;20248;-68
2024/02/21 05:51:34;;;;;;;4.20;3.37;;;5.50;99.90;;;;;;5056652;28;20598;-68
2024/02/21 05:53:59;;;;;;;8.87;4.10;;;5.50;99.90;;;;;;5069672;28;20753;-68
2024/02/21 05:56:25;;;;;;;5.60;2.90;;;5.50;99.90;;;;;;5053024;28;20507;-68
2024/02/21 05:58:50;;;;;;;7.80;3.70;;;5.50;99.90;;;;;;5041432;28;20296;-68
2024/02/21 06:01:16;;;;;;;4.00;3.07;;;5.50;99.90;;;;;;5036407;28;20175;-68
2024/02/21 06:03:42;;;;;;;3.97;3.20;;;5.50;99.90;;;;;;5053140;28;20571;-68
2024/02/21 06:06:07;;;;;;;5.77;3.53;;;5.50;99.90;;;;;;5055721;28;20559;-68
2024/02/21 06:08:33;;;;;;;5.50;3.47;;;5.40;99.90;;;;;;5057769;28;20203;-67
2024/02/21 06:10:58;;;;;;;5.70;3.03;;;5.50;99.90;;;;;;5070904;28;20228;-68
2024/02/21 06:13:24;;;;;;;5.00;3.23;;;5.40;99.90;;;;;;5047930;28;20170;-68
2024/02/21 06:15:53;;;;;;;5.70;3.57;;;5.40;99.90;;;;;;5059188;28;20192;-68
2024/02/21 06:18:19;;;;;;;7.03;3.60;;;5.40;99.90;;;;;;5066378;28;20251;-68
2024/02/21 06:20:46;;;;;;;10.73;3.70;;;5.40;99.90;;;;;;5042652;28;20413;-67
2024/02/21 06:23:11;;;;;;;11.40;3.90;;;5.40;99.90;;;;;;5049418;28;21009;-68
2024/02/21 06:25:37;;;;;;;5.40;3.80;;;5.30;99.90;;;;;;5060987;28;20470;-68
2024/02/21 06:28:03;;;;;;;9.30;4.23;;;5.30;99.90;;;;;;5072990;28;20696;-68
2024/02/21 06:30:28;;;;;;;5.93;3.80;;;5.30;99.90;;;;;;5060446;28;20226;-68
2024/02/21 06:32:57;;;;;;;9.57;5.10;;;5.30;99.90;;;;;;5048403;28;20182;-68
2024/02/21 06:35:24;;;;;;;8.33;5.70;;;5.30;99.90;;;;;;5039157;28;20171;-68
2024/02/21 06:37:51;;;;;;;4.73;3.77;;;5.30;99.90;;;;;;5033086;28;20526;-68
2024/02/21 06:40:17;;;;;;;8.03;3.80;;;5.30;99.90;;;;;;5044302;28;20858;-68
2024/02/21 06:42:43;;;;;;;5.30;3.40;;;5.40;99.90;;;;;;5044264;28;20436;-67
2024/02/21 06:45:08;;;;;;;6.13;4.40;;;5.40;99.90;;;;;;5055868;28;21003;-67
2024/02/21 06:47:34;;;;;;;4.40;4.00;;;5.50;99.90;;;;;;5056092;28;20659;-67
2024/02/21 06:49:59;;;;;;;7.33;4.40;;;5.50;99.90;;;;;;5039936;28;20244;-68
2024/02/21 06:52:25;;;;;;;7.87;4.13;;;5.60;99.90;;;;;;5057920;28;20624;-68
2024/02/21 06:54:51;;;;;;;9.40;3.80;;;5.60;99.90;;;;;;5048874;28;20176;-68
2024/02/21 06:57:16;;;;;;;11.23;4.00;;;5.70;99.90;;;;;;5048496;28;20181;-68
2024/02/21 06:59:42;;;;;;;8.13;4.97;;;5.80;99.90;;;;;;5048363;28;20559;-68
2024/02/21 07:02:08;;;;;;;9.13;4.13;;;6.00;99.90;;;;;;5042024;28;20201;-68
2024/02/21 07:04:34;;;;;;;5.53;3.70;;;6.10;99.90;;;;;;5044116;28;20200;-68
2024/02/21 07:06:59;;;;;;;8.37;4.43;;;6.20;99.90;;;;;;5072504;28;20215;-68
2024/02/21 07:09:25;;;;;;;6.00;4.30;;;6.40;99.90;;;;;;5072660;28;20937;-68
2024/02/21 07:11:50;;;;;;;13.80;4.13;;;6.50;99.90;;;;;;5072781;28;20169;-68
2024/02/21 07:14:16;;;;;;;8.47;3.50;;;6.70;99.90;;;;;;5057062;28;20191;-68
2024/02/21 07:16:41;;;;;;;7.70;4.17;;;6.80;99.90;;;;;;5052274;28;20170;-68
2024/02/21 07:19:07;;;;;;;4.93;3.80;;;6.80;99.90;;;;;;5052543;28;20227;-68
2024/02/21 07:21:33;;;;;;;13.43;5.50;;;7.00;99.90;;;;;;5052667;28;20177;-68
2024/02/21 07:23:58;;;;;;;9.50;5.23;;;7.10;99.90;;;;;;5052573;28;20706;-68
2024/02/21 07:26:24;;;;;;;8.10;4.90;;;7.20;99.90;;;;;;5052279;28;20224;-68
2024/02/21 07:28:49;;;;;;;8.70;5.60;;;7.40;99.90;;;;;;5052269;28;20190;-68
2024/02/21 07:31:15;;;;;;;7.13;3.70;;;7.50;99.90;;;;;;5052631;28;20169;-68
2024/02/21 07:33:41;;;;;;;8.40;4.33;;;7.80;99.90;;;;;;5059949;28;20546;-68
2024/02/21 07:36:08;;;;;;;12.50;5.07;;;8.00;99.90;;;;;;5072344;28;20368;-68
2024/02/21 07:38:34;;;;;;;7.07;4.97;;;8.30;99.90;;;;;;5071753;28;20188;-68
2024/02/21 07:40:59;;;;;;;8.90;3.73;;;8.40;99.90;;;;;;5072315;28;20415;-68
2024/02/21 07:43:26;;;;;;;5.77;3.33;;;8.50;99.90;;;;;;5071879;28;20206;-68
2024/02/21 07:45:53;;;;;;;5.83;2.90;;;8.60;99.90;;;;;;5062584;28;20225;-68
2024/02/21 07:48:19;;;;;;;3.50;2.83;;;8.70;99.90;;;;;;5048810;28;20449;-68
2024/02/21 07:50:44;;;;;;;5.20;3.27;;;8.70;99.90;;;;;;5032289;28;20470;-68
2024/02/21 07:53:10;;;;;;;8.47;3.57;;;8.50;99.90;;;;;;5032171;28;20257;-68
2024/02/21 07:55:35;;;;;;;8.47;3.50;;;8.60;99.90;;;;;;5032107;28;20181;-68
2024/02/21 07:58:01;;;;;;;6.93;3.07;;;8.50;99.90;;;;;;5031411;28;20214;-68
2024/02/21 08:00:26;;;;;;;8.43;3.30;;;8.70;99.90;;;;;;5032105;28;20189;-68
2024/02/21 08:02:52;;;;;;;5.13;2.97;;;8.60;99.90;;;;;;5032240;28;20221;-68
2024/02/21 08:05:18;;;;;;;4.20;2.97;;;8.70;99.90;;;;;;5049014;28;20267;-68
2024/02/21 08:07:43;;;;;;;6.13;3.20;;;8.70;99.90;;;;;;5051417;28;20189;-68
2024/02/21 08:10:09;;;;;;;4.90;3.70;;;8.70;99.90;;;;;;5051925;28;20192;-68
2024/02/21 08:12:35;;;;;;;8.63;3.60;;;8.90;99.90;;;;;;5051849;28;20228;-68
2024/02/21 08:15:03;;;;;;;10.27;3.47;;;9.10;99.90;;;;;;5037859;28;20170;-68
2024/02/21 08:17:28;;;;;;;4.60;2.90;;;9.20;99.90;;;;;;5031509;28;20209;-69
2024/02/21 08:19:54;;;;;;;6.27;3.90;;;9.20;99.90;;;;;;5031868;28;20412;-68
2024/02/21 08:22:19;;;;;;;11.87;4.10;;;9.30;99.90;;;;;;5048049;28;20260;-68
2024/02/21 08:24:45;;;;;;;5.40;3.23;;;9.50;99.90;;;;;;5041062;28;20206;-69
2024/02/21 08:27:11;;;;;;;6.33;3.40;;;9.50;99.90;;;;;;5031373;28;20585;-68
2024/02/21 08:29:36;;;;;;;5.43;3.73;;;9.60;99.90;;;;;;5031843;28;20647;-68
2024/02/21 08:32:02;;;;;;;5.30;3.53;;;9.70;99.90;;;;;;5031732;28;20176;-68
2024/02/21 08:34:29;;;;;;;8.63;4.00;;;9.90;99.90;;;;;;5038121;28;20184;-68
2024/02/21 08:36:55;;;;;;;11.77;3.77;;;10.20;99.90;;;;;;5051444;28;20169;-68
2024/02/21 08:39:21;;;;;;;7.63;3.60;;;10.40;99.90;;;;;;5051548;28;20451;-68
2024/02/21 08:41:46;;;;;;;6.30;3.57;;;10.40;99.90;;;;;;5051589;28;20174;-68
2024/02/21 08:44:12;;;;;;;8.23;2.83;;;10.50;99.90;;;;;;5044543;28;20431;-69
2024/02/21 08:46:40;;;;;;;4.50;2.80;;;10.50;99.90;;;;;;5031213;28;20174;-68
2024/02/21 08:49:06;;;;;;;10.10;3.53;;;10.40;99.90;;;;;;5031567;28;20244;-68
2024/02/21 08:51:31;;;;;;;7.50;3.53;;;10.20;99.90;;;;;;5032196;28;20424;-68
2024/02/21 08:53:56;;;;;;;9.97;4.00;;;10.10;99.90;;;;;;5032829;28;20443;-68
2024/02/21 08:56:22;;;;;;;6.50;2.70;;;10.10;99.90;;;;;;5035185;28;20199;-68
2024/02/21 08:58:47;;;;;;;8.50;3.70;;;10.20;99.90;;;;;;5034904;28;20210;-68
2024/02/21 09:01:13;;;;;;;6.83;4.03;;;10.00;99.90;;;;;;5039575;28;20177;-68
2024/02/21 09:03:39;;;;;;;6.00;3.37;;;9.90;99.90;;;;;;5055194;28;20658;-68
2024/02/21 09:06:05;;;;;;;8.50;3.03;;;9.80;99.90;;;;;;5054997;28;20201;-68
2024/02/21 09:08:31;;;;;;;4.57;2.47;;;9.90;99.90;;;;;;5054684;28;20189;-68
2024/02/21 09:10:57;;;;;;;5.77;2.80;;;10.10;99.90;;;;;;5055072;28;20412;-68
2024/02/21 09:13:23;;;;;;;6.47;2.80;;;10.20;99.90;;;;;;5054803;28;20481;-68
2024/02/21 09:15:49;;;;;;;4.50;2.60;;;10.30;99.90;;;;;;5055045;28;20177;-68
2024/02/21 09:18:17;;;;;;;8.70;4.03;;;10.40;99.90;;;;;;5054424;28;20435;-67
2024/02/21 09:20:43;;;;;;;6.03;3.00;;;10.70;99.90;;;;;;5053215;28;20256;-67
2024/02/21 09:23:09;;;;;;;5.30;3.10;;;10.80;99.90;;;;;;5054920;28;20494;-67
2024/02/21 09:25:35;;;;;;;5.50;3.07;;;10.80;99.90;;;;;;5054694;28;20254;-67
2024/02/21 09:28:02;;;;;;;4.73;3.40;;;10.80;99.90;;;;;;5053065;28;20239;-67
2024/02/21 09:30:27;;;;;;;10.97;2.90;;;10.90;99.90;;;;;;5034812;28;20167;-67
2024/02/21 09:32:53;;;;;;;8.83;4.63;;;11.60;99.90;;;;;;5034756;28;20417;-68
2024/02/21 09:35:19;;;;;;;6.43;3.00;;;11.80;99.90;;;;;;5040377;28;20603;-67
2024/02/21 09:37:44;;;;;;;5.27;3.00;;;12.00;99.90;;;;;;5054013;28;20193;-67
2024/02/21 09:40:10;;;;;;;6.50;3.27;;;12.30;99.90;;;;;;5054514;28;20169;-67
2024/02/21 09:42:41;;;;;;;5.23;2.93;;;13.00;99.90;;;;;;5054534;28;20181;-67
2024/02/21 09:45:27;;;;;;;9.20;3.47;;;13.50;99.90;;;;;;5053672;28;20517;-67
2024/02/21 09:48:14;;;;;;;4.70;2.70;;;13.90;99.90;;;;;;5053654;28;20440;-67
2024/02/21 09:50:43;;;;;;;4.20;3.20;;;14.10;99.90;;;;;;5047804;28;20838;-67
2024/02/21 09:53:11;;;;;;;9.27;3.10;;;14.40;99.50;;;;;;5034264;28;20500;-67
2024/02/21 09:55:40;;;;;;;10.07;3.37;;;14.40;98.60;;;;;;5034294;28;20421;-68
2024/02/21 09:58:07;;;;;;;7.93;3.87;;;14.80;98.40;;;;;;5046996;28;20460;-67
2024/02/21 10:00:33;;;;;;;5.47;3.13;;;15.00;94.40;;;;;;5039473;28;20999;-68
2024/02/21 10:02:59;;;;;;;6.20;2.97;;;14.20;96.80;;;;;;5034247;28;20559;-67
2024/02/21 10:05:25;;;;;;;7.23;3.17;;;13.90;98.20;;;;;;5033513;28;20539;-67
2024/02/21 10:07:51;;;;;;;5.00;3.00;;;14.40;97.40;;;;;;5033634;28;20194;-68
2024/02/21 10:10:21;;;;;;;3.10;2.67;;;15.40;95.10;;;;;;5033946;28;20413;-67
2024/02/21 10:12:55;;;;;;;6.67;3.77;;;15.70;91.60;;;;;;5033874;28;20417;-67
2024/02/21 10:15:24;;;;;;;8.23;3.80;;;16.30;88.40;;;;;;5033853;28;20794;-68
2024/02/21 10:17:58;;;;;;;5.53;2.83;;;16.60;84.00;;;;;;5033127;28;20954;-67
2024/02/21 10:20:24;;;;;;;4.73;2.87;;;16.60;84.30;;;;;;5033879;28;20479;-68
2024/02/21 10:23:07;;;;;;;5.73;3.20;;;16.70;81.80;;;;;;5033953;28;20444;-68
2024/02/21 10:25:33;;;;;;;3.13;2.50;;;17.20;79.00;;;;;;5033707;28;20220;-67
2024/02/21 10:27:59;;;;;;;5.80;3.50;;;16.90;76.00;;;;;;5033052;28;20428;-68
2024/02/21 10:30:24;;;;;;;10.47;3.73;;;17.10;76.80;;;;;;5033630;28;20424;-68
2024/02/21 10:32:54;;;;;;;4.30;3.30;;;17.10;73.50;;;;;;5033584;28;20257;-67
2024/02/21 10:35:30;;;;;;;6.17;2.90;;;16.50;76.10;;;;;;5033526;28;20707;-67
2024/02/21 10:37:56;;;;;;;4.40;2.73;;;16.10;78.60;;;;;;5033046;28;20448;-67
2024/02/21 10:40:24;;;;;;;6.63;3.20;;;15.90;77.00;;;;;;5033476;28;20931;-67
2024/02/21 10:42:55;;;;;;;7.20;3.20;;;16.00;78.60;;;;;;5033513;28;20467;-67
2024/02/21 10:45:22;;;;;;;6.57;2.80;;;16.60;76.20;;;;;;5033555;28;20462;-67
2024/02/21 10:47:55;;;;;;;4.17;2.60;;;16.00;76.80;;;;;;5048856;28;20444;-68
2024/02/21 10:50:23;;;;;;;4.50;2.90;;;15.90;80.10;;;;;;5053200;28;20412;-67
2024/02/21 10:52:55;;;;;;;5.30;2.50;;;15.70;79.50;;;;;;5037155;28;20567;-67
2024/02/21 10:55:32;;;;;;;6.03;3.33;;;15.30;79.00;;;;;;5033133;28;20409;-68
2024/02/21 10:57:57;;;;;;;4.03;3.33;;;14.90;82.80;;;;;;5032432;28;20474;-67
2024/02/21 11:00:29;;;;;;;3.20;2.90;;;14.80;84.20;;;;;;5033426;28;20512;-67
2024/02/21 11:02:59;;;;;;;5.00;2.90;;;14.80;85.80;;;;;;5033088;28;20478;-67
2024/02/21 11:05:27;;;;;;;7.03;3.70;;;14.80;83.90;;;;;;5032834;28;20455;-68
2024/02/21 11:07:53;;;;;;;6.00;3.07;;;14.80;83.70;;;;;;5032705;28;20818;-67
2024/02/21 11:10:26;;;;;;;6.03;3.20;;;14.50;86.00;;;;;;5032691;28;20419;-67
2024/02/21 11:13:08;;;;;;;8.30;2.73;;;14.40;87.00;;;;;;5033289;28;20174;-67
2024/02/21 11:15:34;;;;;;;4.30;2.30;;;14.20;89.10;;;;;;5032932;28;20818;-67
2024/02/21 11:18:00;;;;;;;5.13;2.70;;;14.30;86.10;;;;;;5032112;28;20571;-67
2024/02/21 11:20:34;;;;;;;7.40;4.37;;;14.30;85.40;;;;;;5032947;28;20570;-68
2024/02/21 11:23:00;;;;;;;3.77;2.70;;;14.60;86.00;;;;;;5032742;28;20253;-67
2024/02/21 11:25:26;;;;;;;4.50;3.70;;;14.60;79.60;;;;;;5032621;28;20973;-67
2024/02/21 11:28:06;;;;;;;3.70;2.23;;;14.70;78.80;;;;;;5031958;28;20516;-67
2024/02/21 11:30:37;;;;;;;6.00;2.00;;;15.00;75.50;;;;;;5032644;28;20247;-67
2024/02/21 11:33:03;;;;;;;4.53;2.30;;;15.10;73.80;;;;;;5032434;28;20484;-67
2024/02/21 11:35:36;;;;;;;3.00;2.10;;;14.80;73.00;;;;;;5032609;28;20516;-68
2024/02/21 11:38:17;;;;;;;2.87;2.00;;;14.80;70.00;;;;;;5032173;28;20820;-67
2024/02/21 11:40:46;;;;;;;2.90;2.00;;;14.70;71.10;;;;;;5032444;28;20410;-67
2024/02/21 11:43:12;;;;;;;3.23;2.47;;;14.80;71.10;;;;;;5032422;28;20432;-67
2024/02/21 11:45:39;;;;;;;4.93;2.30;;;14.80;70.90;;;;;;5039387;28;20814;-67
2024/02/21 11:48:06;;;;;;;3.47;1.87;;;14.80;71.30;;;;;;5051698;28;20225;-68
2024/02/21 11:50:32;;;;;;;5.30;2.33;;;15.00;70.50;;;;;;5052122;28;20416;-67
2024/02/21 11:52:58;;;;;;;3.20;2.30;;;15.10;68.70;;;;;;5040356;28;20423;-67
2024/02/21 11:55:23;;;;;;;2.97;1.93;;;15.10;70.20;;;;;;5032316;28;20174;-67
2024/02/21 11:57:52;;;;;;;2.30;1.93;;;14.80;70.70;;;;;;5041287;28;20208;-68
2024/02/21 12:00:24;;;;;;;4.37;2.43;;;14.20;71.40;;;;;;5052039;28;20718;-67
2024/02/21 12:02:50;;;;;;;6.97;2.73;;;13.90;75.80;;;;;;5052055;28;20470;-67
2024/02/21 12:05:15;;;;;;;5.63;5.03;;;14.30;76.70;;;;;;5051917;28;21080;-68
2024/02/21 12:07:41;;;;;;;4.03;2.17;;;14.70;73.40;;;;;;5044048;28;20528;-68
2024/02/21 12:10:09;;;;;;;2.67;2.47;;;14.80;69.70;;;;;;5032091;28;20178;-67
2024/02/21 12:12:37;;;;;;;2.43;1.90;;;15.00;67.70;;;;;;5031980;28;20413;-68
2024/02/21 12:15:06;;;;;;;2.67;1.97;;;14.80;64.10;;;;;;5031942;28;20482;-67
2024/02/21 12:17:36;;;;;;;2.00;1.80;;;14.60;63.00;;;;;;5031506;28;20539;-67
2024/02/21 12:20:05;;;;;;;4.53;2.10;;;14.70;62.40;;;;;;5031893;28;20421;-67
2024/02/21 12:22:34;;;;;;;4.00;1.97;;;15.00;64.30;;;;;;5035437;28;20420;-68
2024/02/21 12:25:02;;;;;;;4.10;2.00;;;15.00;62.70;;;;;;5051609;28;20564;-67
2024/02/21 12:27:28;;;;;;;3.07;2.00;;;15.10;63.60;;;;;;5051005;28;20412;-67
2024/02/21 12:29:54;;;;;;;2.17;1.83;;;15.40;62.00;;;;;;5044803;28;20421;-67
2024/02/21 12:32:19;;;;;;;2.30;1.83;;;15.30;61.20;;;;;;5035899;28;20413;-68
2024/02/21 12:34:45;;;;;;;4.27;2.20;;;15.30;61.00;;;;;;5035846;28;20655;-68
2024/02/21 12:37:13;;;;;;;2.10;1.90;;;15.50;59.90;;;;;;5035014;28;20197;-67
2024/02/21 12:39:38;;;;;;;3.47;2.20;;;15.90;59.80;;;;;;5036152;28;20198;-68
2024/02/21 12:42:04;;;;;;;1.87;1.60;;;15.70;58.60;;;;;;5035751;28;20425;-68
2024/02/21 12:44:29;;;;;;;3.30;3.00;;;15.50;58.50;;;;;;5035558;28;20232;-68
2024/02/21 12:46:55;;;;;;;3.13;2.83;;;15.40;59.00;;;;;;5035037;28;20575;-68
2024/02/21 12:49:20;;;;;;;2.57;2.00;;;15.40;59.20;;;;;;5052207;28;20201;-67